Gouch Mill, Missouri
Current Conditions -  °F | °C
As of 4:55 PM on Wednesday 22 Oct 2014 (Local Time) from KVER Reporting Station
Haze Haze  
Wind Chill: 66°   Ceiling: 700
Heat Index: 66°   Visibility: 1.2mi
Dew Point: 44°   Wind: 10mph
Humidity: 44%   Direction: 130°SE
Pressure: 30.15"   Gusts: NA
Location:  38.8294°N, 92.5997°W
Report Text: KVER 222155Z AUTO 13009KT 1 1/4SM HZ VV007 19/07 A3015 RMK AO2 VIS 3/4V4 T01910065
Loading
Personal Weather Stations






























Interactive Weather Map
Tropical Storm Tracking
New forecast layout! Learn more

10-Day Weather Forecast

Advertisements
Track Severe Weather on mobile